createdAt,value
2022-08-26T00:00:46.148Z,67.93
2022-08-26T00:01:46.171Z,67.99
2022-08-26T00:02:46.130Z,67.99
2022-08-26T00:03:46.163Z,67.90
2022-08-26T00:04:46.129Z,67.80
2022-08-26T00:05:46.102Z,67.49
2022-08-26T00:06:46.539Z,67.80
2022-08-26T00:07:46.088Z,67.49
2022-08-26T00:08:46.093Z,67.69
2022-08-26T00:09:47.495Z,67.19
2022-08-26T00:10:46.060Z,67.57
2022-08-26T00:11:46.053Z,67.36
2022-08-26T00:12:46.141Z,67.46
2022-08-26T00:13:47.935Z,67.36
2022-08-26T00:14:46.033Z,67.36
2022-08-26T00:15:46.014Z,67.57
2022-08-26T00:16:47.271Z,67.66
2022-08-26T00:17:45.987Z,67.57
2022-08-26T00:18:45.994Z,67.66
2022-08-26T00:19:46.004Z,67.49
2022-08-26T00:20:45.987Z,67.26
2022-08-26T00:21:45.963Z,67.99
2022-08-26T00:22:45.957Z,67.80
2022-08-26T00:23:45.950Z,67.80
2022-08-26T00:24:48.077Z,67.99
2022-08-26T00:25:45.930Z,68.59
2022-08-26T00:26:45.933Z,68.49
2022-08-26T00:27:45.914Z,68.10
2022-08-26T00:28:45.910Z,68.59
2022-08-26T00:29:45.924Z,68.19
2022-08-26T00:30:45.898Z,67.99
2022-08-26T00:31:45.923Z,68.10
2022-08-26T00:32:46.342Z,68.26
2022-08-26T00:33:45.853Z,68.59
2022-08-26T00:34:45.878Z,69.43
2022-08-26T00:35:45.850Z,69.62
2022-08-26T00:36:45.836Z,69.62
2022-08-26T00:37:45.826Z,69.73
2022-08-26T00:38:45.819Z,69.66
2022-08-26T00:39:45.839Z,70.36
2022-08-26T00:40:45.812Z,70.36
2022-08-26T00:41:45.794Z,70.56
2022-08-26T00:42:45.905Z,69.56
2022-08-26T00:43:47.299Z,70.56
2022-08-26T00:44:45.786Z,70.66
2022-08-26T00:45:45.805Z,70.86
2022-08-26T00:46:46.982Z,70.83
2022-08-26T00:47:45.747Z,70.56
2022-08-26T00:48:45.740Z,70.76
2022-08-26T00:49:45.736Z,70.56
2022-08-26T00:50:45.723Z,70.56
2022-08-26T00:51:45.717Z,70.46
2022-08-26T00:52:45.708Z,70.72
2022-08-26T00:53:45.700Z,70.26
2022-08-26T00:54:45.708Z,70.62
2022-08-26T00:55:45.682Z,70.32
2022-08-26T00:56:47.085Z,70.03
2022-08-26T00:57:45.660Z,70.66
2022-08-26T00:58:45.659Z,70.32
2022-08-26T00:59:45.674Z,70.56
2022-08-26T01:00:45.662Z,70.36
2022-08-26T01:01:45.941Z,70.12
2022-08-26T01:02:46.829Z,70.76
2022-08-26T01:03:45.629Z,70.86
2022-08-26T01:04:45.643Z,71.26
2022-08-26T01:05:45.589Z,70.86
2022-08-26T01:06:45.581Z,71.26
2022-08-26T01:07:45.576Z,70.86
2022-08-26T01:08:45.572Z,70.36
2022-08-26T01:09:45.577Z,71.06
2022-08-26T01:10:45.549Z,70.99
2022-08-26T01:11:45.540Z,71.16
2022-08-26T01:12:45.557Z,70.69
2022-08-26T01:13:45.518Z,71.33
2022-08-26T01:14:46.516Z,71.59
2022-08-26T01:15:45.505Z,71.19
2022-08-26T01:16:45.551Z,71.69
2022-08-26T01:17:45.472Z,71.59
2022-08-26T01:18:45.483Z,71.59
2022-08-26T01:19:45.486Z,71.89
2022-08-26T01:20:45.465Z,71.62
2022-08-26T01:21:45.453Z,71.53
2022-08-26T01:22:45.465Z,72.23
2022-08-26T01:23:45.439Z,72.96
2022-08-26T01:24:45.456Z,74.10
2022-08-26T01:25:45.410Z,74.63
2022-08-26T01:26:45.403Z,74.60
2022-08-26T01:27:45.398Z,74.60
2022-08-26T01:28:45.385Z,74.10
2022-08-26T01:29:45.399Z,74.50
2022-08-26T01:30:45.373Z,74.20
2022-08-26T01:31:45.426Z,73.90
2022-08-26T01:32:45.348Z,73.90
2022-08-26T01:33:45.335Z,74.10
2022-08-26T01:34:45.356Z,74.50
2022-08-26T01:35:45.324Z,74.30
2022-08-26T01:36:50.605Z,74.20
2022-08-26T01:37:46.290Z,73.90
2022-08-26T01:38:45.299Z,74.30
2022-08-26T01:39:45.312Z,74.50
2022-08-26T01:40:45.280Z,73.90
2022-08-26T01:41:45.256Z,74.00
2022-08-26T01:42:45.257Z,74.16
2022-08-26T01:43:45.235Z,73.86
2022-08-26T01:44:45.265Z,74.10
2022-08-26T01:45:45.290Z,74.30
2022-08-26T01:46:45.218Z,74.20
2022-08-26T01:47:45.212Z,75.10
2022-08-26T01:48:45.199Z,73.90
2022-08-26T01:49:45.205Z,74.20
2022-08-26T01:50:45.182Z,74.00
2022-08-26T01:51:45.169Z,74.40
2022-08-26T01:52:45.168Z,74.40
2022-08-26T01:53:46.113Z,74.10
2022-08-26T01:54:46.321Z,74.60
2022-08-26T01:55:46.135Z,74.80
2022-08-26T01:56:45.132Z,74.70
2022-08-26T01:57:45.112Z,74.60
2022-08-26T01:58:45.106Z,74.20
2022-08-26T01:59:45.112Z,74.84
2022-08-26T02:00:45.114Z,75.13
2022-08-26T02:01:45.070Z,75.13
2022-08-26T02:02:45.070Z,75.84
2022-08-26T02:03:45.069Z,75.13
2022-08-26T02:04:45.161Z,75.63
2022-08-26T02:05:45.033Z,75.93
2022-08-26T02:06:45.028Z,76.04
2022-08-26T02:07:45.020Z,75.63
2022-08-26T02:08:45.010Z,75.74
2022-08-26T02:09:45.017Z,75.54
2022-08-26T02:10:44.988Z,75.63
2022-08-26T02:11:44.984Z,75.54
2022-08-26T02:12:44.969Z,76.14
2022-08-26T02:13:44.967Z,76.24
2022-08-26T02:14:44.969Z,75.93
2022-08-26T02:15:44.978Z,76.43
2022-08-26T02:16:44.958Z,76.34
2022-08-26T02:17:44.925Z,76.24
2022-08-26T02:18:44.909Z,76.14
2022-08-26T02:19:44.923Z,76.24
2022-08-26T02:20:44.897Z,76.54
2022-08-26T02:21:44.888Z,76.64
2022-08-26T02:22:45.184Z,76.74
2022-08-26T02:23:44.864Z,76.74
2022-08-26T02:24:44.866Z,76.98
2022-08-26T02:25:44.847Z,76.64
2022-08-26T02:26:44.836Z,76.74
2022-08-26T02:27:44.820Z,76.47
2022-08-26T02:28:44.800Z,76.47
2022-08-26T02:29:44.821Z,76.07
2022-08-26T02:30:44.793Z,76.17
2022-08-26T02:31:44.835Z,76.28
2022-08-26T02:32:44.770Z,76.28
2022-08-26T02:33:44.767Z,76.47
2022-08-26T02:34:44.779Z,76.37
2022-08-26T02:35:44.747Z,76.47
2022-08-26T02:36:44.729Z,76.78
2022-08-26T02:37:44.720Z,76.98
2022-08-26T02:38:44.721Z,77.21
2022-08-26T02:39:44.727Z,77.51
2022-08-26T02:40:44.684Z,77.65
2022-08-26T02:41:45.137Z,78.05
2022-08-26T02:42:44.676Z,78.39
2022-08-26T02:43:44.690Z,78.19
2022-08-26T02:44:44.667Z,78.45
2022-08-26T02:45:44.642Z,78.25
2022-08-26T02:46:47.091Z,78.55
2022-08-26T02:47:44.623Z,78.85
2022-08-26T02:48:44.627Z,78.55
2022-08-26T02:49:44.629Z,78.55
2022-08-26T02:50:44.610Z,78.75
2022-08-26T02:51:44.593Z,78.35
2022-08-26T02:52:44.575Z,78.35
2022-08-26T02:53:44.567Z,78.72
2022-08-26T02:54:44.588Z,78.35
2022-08-26T02:55:44.556Z,78.55
2022-08-26T02:56:44.531Z,78.55
2022-08-26T02:57:44.529Z,78.35
2022-08-26T02:58:44.522Z,78.61
2022-08-26T02:59:44.522Z,78.66
2022-08-26T03:00:52.805Z,78.75
2022-08-26T03:01:45.522Z,78.75
2022-08-26T03:02:44.480Z,78.96
2022-08-26T03:03:44.460Z,79.16
2022-08-26T03:04:58.067Z,79.16
2022-08-26T03:05:45.450Z,78.75
2022-08-26T03:06:47.038Z,78.96
2022-08-26T03:07:44.441Z,79.25
2022-08-26T03:08:44.422Z,79.05
2022-08-26T03:09:44.435Z,79.25
2022-08-26T03:10:44.394Z,79.46
2022-08-26T03:11:44.396Z,79.75
2022-08-26T03:12:44.376Z,79.55
2022-08-26T03:13:44.366Z,79.55
2022-08-26T03:14:44.378Z,79.66
2022-08-26T03:15:44.392Z,79.55
2022-08-26T03:16:44.340Z,79.66
2022-08-26T03:17:44.335Z,80.06
2022-08-26T03:18:44.320Z,79.12
2022-08-26T03:19:44.317Z,79.16
2022-08-26T03:20:44.573Z,79.46
2022-08-26T03:21:44.287Z,80.36
2022-08-26T03:22:44.280Z,80.32
2022-08-26T03:23:44.268Z,80.16
2022-08-26T03:24:46.110Z,80.06
2022-08-26T03:25:44.264Z,79.86
2022-08-26T03:26:52.017Z,80.16
2022-08-26T03:27:44.226Z,80.10
2022-08-26T03:28:44.218Z,80.30
2022-08-26T03:29:44.203Z,80.40
2022-08-26T03:30:45.786Z,80.06
2022-08-26T03:31:44.254Z,79.39
2022-08-26T03:32:44.181Z,79.49
2022-08-26T03:33:44.182Z,80.40
2022-08-26T03:34:44.164Z,79.90
2022-08-26T03:35:44.168Z,80.40
2022-08-26T03:36:44.139Z,79.39
2022-08-26T03:37:44.133Z,79.39
2022-08-26T03:38:44.122Z,80.10
2022-08-26T03:39:44.096Z,80.33
2022-08-26T03:40:44.115Z,80.33
2022-08-26T03:41:44.090Z,80.43
2022-08-26T03:42:45.269Z,81.24
2022-08-26T03:43:44.078Z,81.34
2022-08-26T03:44:44.060Z,81.04
2022-08-26T03:45:44.071Z,80.43
2022-08-26T03:46:44.205Z,80.94
2022-08-26T03:47:44.024Z,80.83
2022-08-26T03:48:44.024Z,80.54
2022-08-26T03:49:44.014Z,80.83
2022-08-26T03:50:44.019Z,80.04
2022-08-26T03:51:43.994Z,80.10
2022-08-26T03:52:44.278Z,79.93
2022-08-26T03:53:43.969Z,80.19
2022-08-26T03:54:43.960Z,79.99
2022-08-26T03:55:43.965Z,80.50
2022-08-26T03:56:43.941Z,80.24
2022-08-26T03:57:43.956Z,80.13
2022-08-26T03:58:43.918Z,81.18
2022-08-26T03:59:43.914Z,81.18
2022-08-26T04:00:43.923Z,81.58
2022-08-26T04:01:43.979Z,81.92
2022-08-26T04:02:43.921Z,82.12
2022-08-26T04:03:43.870Z,82.97
2022-08-26T04:04:43.887Z,83.57
2022-08-26T04:05:43.869Z,83.81
2022-08-26T04:06:44.625Z,83.81
2022-08-26T04:07:43.829Z,84.11
2022-08-26T04:08:43.821Z,84.11
2022-08-26T04:09:43.818Z,84.25
2022-08-26T04:10:43.828Z,84.41
2022-08-26T04:11:43.816Z,84.31
2022-08-26T04:12:44.789Z,84.91
2022-08-26T04:13:43.833Z,84.91
2022-08-26T04:14:43.766Z,84.77
2022-08-26T04:15:43.834Z,84.77
2022-08-26T04:16:43.741Z,84.47
2022-08-26T04:17:43.731Z,84.27
2022-08-26T04:18:46.808Z,84.13
2022-08-26T04:19:43.702Z,84.33
2022-08-26T04:20:43.717Z,84.13
2022-08-26T04:21:43.689Z,83.83
2022-08-26T04:22:43.679Z,83.63
2022-08-26T04:23:47.185Z,83.83
2022-08-26T04:24:43.660Z,83.83
2022-08-26T04:25:43.671Z,83.93
2022-08-26T04:26:43.928Z,83.73
2022-08-26T04:27:43.619Z,83.63
2022-08-26T04:28:43.615Z,83.49
2022-08-26T04:29:43.607Z,83.73
2022-08-26T04:30:43.616Z,83.89
2022-08-26T04:31:43.647Z,83.12
2022-08-26T04:32:43.582Z,82.89
2022-08-26T04:33:43.559Z,82.78
2022-08-26T04:34:43.552Z,82.72
2022-08-26T04:35:43.564Z,82.58
2022-08-26T04:36:43.530Z,82.48
2022-08-26T04:37:43.530Z,82.42
2022-08-26T04:38:43.506Z,82.22
2022-08-26T04:39:43.500Z,82.72
2022-08-26T04:40:43.548Z,82.68
2022-08-26T04:41:43.481Z,82.62
2022-08-26T04:42:43.470Z,82.52
2022-08-26T04:43:43.452Z,82.18
2022-08-26T04:44:43.454Z,82.62
2022-08-26T04:45:43.465Z,82.38
2022-08-26T04:46:43.841Z,82.42
2022-08-26T04:47:44.790Z,82.58
2022-08-26T04:48:43.413Z,82.62
2022-08-26T04:49:43.403Z,82.38
2022-08-26T04:50:43.413Z,82.72
2022-08-26T04:51:43.942Z,82.68
2022-08-26T04:52:43.389Z,82.28
2022-08-26T04:53:43.359Z,82.68
2022-08-26T04:54:44.352Z,82.58
2022-08-26T04:55:45.026Z,82.62
2022-08-26T04:56:43.341Z,82.82
2022-08-26T04:57:43.316Z,82.58
2022-08-26T04:58:43.328Z,82.38
2022-08-26T04:59:43.313Z,82.62
2022-08-26T05:00:43.306Z,81.92
2022-08-26T05:01:43.336Z,81.82
2022-08-26T05:02:43.270Z,82.36
2022-08-26T05:03:43.323Z,83.81
2022-08-26T05:04:43.251Z,84.25
2022-08-26T05:05:43.256Z,84.85
2022-08-26T05:06:43.227Z,84.75
2022-08-26T05:07:43.253Z,84.65
2022-08-26T05:08:43.231Z,84.65
2022-08-26T05:09:43.203Z,84.45
2022-08-26T05:10:43.572Z,84.61
2022-08-26T05:11:43.173Z,85.11
2022-08-26T05:12:43.172Z,84.81
2022-08-26T05:13:43.156Z,84.71
2022-08-26T05:14:43.150Z,85.02
2022-08-26T05:15:43.177Z,84.77
2022-08-26T05:16:43.122Z,84.37
2022-08-26T05:17:43.113Z,84.17
2022-08-26T05:18:43.107Z,84.37
2022-08-26T05:19:43.180Z,84.27
2022-08-26T05:20:43.310Z,83.76
2022-08-26T05:21:43.073Z,83.57
2022-08-26T05:22:43.053Z,83.87
2022-08-26T05:23:43.049Z,83.83
2022-08-26T05:24:43.948Z,83.53
2022-08-26T05:25:43.051Z,83.83
2022-08-26T05:26:43.057Z,83.69
2022-08-26T05:27:43.045Z,82.68
2022-08-26T05:28:43.001Z,82.68
2022-08-26T05:29:42.993Z,82.58
2022-08-26T05:30:43.014Z,82.54
2022-08-26T05:31:42.975Z,81.84
2022-08-26T05:32:42.952Z,81.40
2022-08-26T05:33:42.952Z,81.40
2022-08-26T05:34:43.150Z,80.90
2022-08-26T05:35:42.957Z,80.80
2022-08-26T05:36:42.921Z,81.40
2022-08-26T05:37:42.915Z,80.86
2022-08-26T05:38:42.908Z,80.46
2022-08-26T05:39:43.507Z,80.19
2022-08-26T05:40:43.898Z,80.46
2022-08-26T05:41:42.873Z,79.75
2022-08-26T05:42:42.854Z,80.12
2022-08-26T05:43:42.848Z,80.02
2022-08-26T05:44:55.829Z,79.62
2022-08-26T05:45:46.132Z,79.72
2022-08-26T05:46:44.034Z,79.28
2022-08-26T05:47:42.816Z,78.92
2022-08-26T05:48:44.356Z,78.58
2022-08-26T05:49:43.783Z,78.48
2022-08-26T05:50:42.803Z,78.28
2022-08-26T05:51:42.781Z,78.48
2022-08-26T05:52:42.761Z,78.18
2022-08-26T05:53:43.863Z,77.98
2022-08-26T05:54:43.752Z,77.94
2022-08-26T05:55:42.754Z,77.94
2022-08-26T05:56:43.102Z,77.84
2022-08-26T05:57:42.845Z,77.74
2022-08-26T05:58:42.688Z,77.44
2022-08-26T05:59:42.691Z,77.34
2022-08-26T06:00:42.697Z,77.44
2022-08-26T06:01:42.772Z,77.30
2022-08-26T06:02:42.675Z,77.10
2022-08-26T06:03:42.653Z,76.90
2022-08-26T06:04:42.638Z,76.90
2022-08-26T06:05:42.653Z,76.97
2022-08-26T06:06:42.854Z,76.80
2022-08-26T06:07:42.615Z,76.87
2022-08-26T06:08:42.601Z,76.40
2022-08-26T06:09:42.597Z,76.06
2022-08-26T06:10:42.615Z,76.06
2022-08-26T06:11:42.579Z,75.96
2022-08-26T06:12:42.565Z,75.76
2022-08-26T06:13:42.555Z,75.67
2022-08-26T06:14:42.545Z,75.43
2022-08-26T06:15:42.588Z,75.02
2022-08-26T06:16:42.525Z,75.13
2022-08-26T06:17:42.533Z,75.13
2022-08-26T06:18:42.504Z,74.53
2022-08-26T06:19:42.496Z,74.33
2022-08-26T06:20:42.484Z,74.29
2022-08-26T06:21:42.498Z,73.99
2022-08-26T06:22:42.464Z,74.69
2022-08-26T06:23:42.453Z,74.09
2022-08-26T06:24:42.444Z,73.86
2022-08-26T06:25:42.446Z,73.75
2022-08-26T06:26:42.656Z,73.86
2022-08-26T06:27:42.425Z,74.05
2022-08-26T06:28:43.566Z,73.22
2022-08-26T06:29:42.397Z,73.22
2022-08-26T06:30:42.450Z,73.22
2022-08-26T06:31:42.410Z,73.39
2022-08-26T06:32:42.371Z,73.62
2022-08-26T06:33:42.365Z,72.78
2022-08-26T06:34:42.348Z,72.49
2022-08-26T06:35:42.345Z,72.59
2022-08-26T06:36:42.351Z,71.99
2022-08-26T06:37:42.324Z,71.56
2022-08-26T06:38:42.320Z,71.26
2022-08-26T06:39:42.311Z,71.56
2022-08-26T06:40:42.308Z,71.75
2022-08-26T06:41:43.465Z,71.86
2022-08-26T06:42:43.283Z,71.26
2022-08-26T06:43:42.277Z,72.02
2022-08-26T06:44:44.730Z,71.52
2022-08-26T06:45:42.258Z,71.42
2022-08-26T06:46:42.280Z,71.19
2022-08-26T06:47:42.239Z,70.39
2022-08-26T06:48:42.237Z,70.69
2022-08-26T06:49:42.224Z,69.69
2022-08-26T06:50:42.206Z,70.59
2022-08-26T06:51:42.225Z,70.49
2022-08-26T06:52:42.195Z,70.06
2022-08-26T06:53:42.182Z,70.36
2022-08-26T06:54:42.183Z,69.96
2022-08-26T06:55:42.203Z,69.86
2022-08-26T06:56:42.179Z,69.66
2022-08-26T06:57:42.157Z,69.02
2022-08-26T06:58:42.149Z,69.32
2022-08-26T06:59:42.138Z,69.13
2022-08-26T07:00:42.128Z,68.53
2022-08-26T07:01:43.762Z,68.43
2022-08-26T07:02:46.975Z,67.90
2022-08-26T07:03:43.104Z,68.10
2022-08-26T07:04:42.102Z,68.00
2022-08-26T07:05:42.097Z,67.70
2022-08-26T07:06:43.206Z,67.70
2022-08-26T07:07:42.061Z,67.30
2022-08-26T07:08:42.072Z,67.20
2022-08-26T07:09:42.058Z,67.00
2022-08-26T07:10:42.050Z,67.60
2022-08-26T07:11:42.055Z,67.27
2022-08-26T07:12:42.032Z,67.27
2022-08-26T07:13:43.018Z,67.17
2022-08-26T07:14:43.881Z,67.17
2022-08-26T07:15:43.058Z,67.04
2022-08-26T07:16:42.019Z,67.04
2022-08-26T07:17:41.982Z,67.33
2022-08-26T07:18:41.975Z,66.94
2022-08-26T07:19:41.975Z,66.61
2022-08-26T07:20:42.389Z,66.11
2022-08-26T07:21:41.963Z,65.61
2022-08-26T07:22:41.934Z,65.88
2022-08-26T07:23:41.919Z,65.28
2022-08-26T07:24:42.489Z,64.98
2022-08-26T07:25:42.819Z,65.48
2022-08-26T07:26:43.091Z,65.45
2022-08-26T07:27:41.884Z,65.35
2022-08-26T07:28:41.882Z,65.39
2022-08-26T07:29:41.876Z,65.55
2022-08-26T07:30:41.899Z,65.25
2022-08-26T07:31:42.686Z,64.36
2022-08-26T07:32:41.876Z,65.58
2022-08-26T07:33:41.812Z,65.48
2022-08-26T07:34:41.975Z,65.45
2022-08-26T07:35:41.801Z,65.65
2022-08-26T07:36:42.813Z,64.95
2022-08-26T07:37:41.811Z,64.66
2022-08-26T07:38:41.785Z,64.83
2022-08-26T07:39:41.776Z,64.33
2022-08-26T07:40:41.759Z,64.53
2022-08-26T07:41:41.768Z,64.53
2022-08-26T07:42:41.747Z,64.03
2022-08-26T07:43:41.719Z,64.70
2022-08-26T07:44:41.712Z,64.73
2022-08-26T07:45:41.699Z,63.96
2022-08-26T07:46:41.710Z,65.22
2022-08-26T07:47:41.694Z,65.42
2022-08-26T07:48:41.678Z,64.73
2022-08-26T07:49:41.743Z,64.92
2022-08-26T07:50:50.488Z,64.53
2022-08-26T07:51:42.665Z,64.83
2022-08-26T07:52:42.554Z,64.06
2022-08-26T07:53:42.445Z,65.45
2022-08-26T07:54:41.608Z,65.19
2022-08-26T07:55:41.598Z,65.28
2022-08-26T07:56:41.625Z,65.19
2022-08-26T07:57:41.629Z,65.16
2022-08-26T07:58:41.570Z,65.55
2022-08-26T07:59:41.562Z,65.45
2022-08-26T08:00:41.550Z,65.16
2022-08-26T08:01:41.635Z,65.45
2022-08-26T08:02:41.528Z,65.45
2022-08-26T08:03:41.521Z,65.45
2022-08-26T08:04:41.560Z,65.28
2022-08-26T08:05:41.558Z,65.98
2022-08-26T08:06:41.508Z,66.61
2022-08-26T08:07:45.212Z,66.71
2022-08-26T08:08:41.468Z,67.21
2022-08-26T08:09:41.452Z,67.00
2022-08-26T08:10:41.455Z,67.30
2022-08-26T08:11:42.460Z,66.71
2022-08-26T08:12:41.418Z,66.08
2022-08-26T08:13:41.428Z,66.67
2022-08-26T08:14:41.402Z,66.41
2022-08-26T08:15:41.397Z,66.41
2022-08-26T08:16:45.916Z,66.88
2022-08-26T08:17:42.377Z,66.58
2022-08-26T08:18:41.638Z,66.28
2022-08-26T08:19:41.392Z,66.78
2022-08-26T08:20:44.676Z,66.18
2022-08-26T08:21:42.347Z,65.98
2022-08-26T08:22:41.320Z,65.98
2022-08-26T08:23:41.307Z,66.08
2022-08-26T08:24:41.305Z,65.85
2022-08-26T08:25:41.299Z,66.05
2022-08-26T08:26:41.293Z,66.05
2022-08-26T08:27:41.271Z,65.55
2022-08-26T08:28:41.254Z,65.32
2022-08-26T08:29:41.248Z,64.73
2022-08-26T08:30:41.271Z,65.32
2022-08-26T08:31:58.038Z,64.62
2022-08-26T08:32:43.217Z,64.70
2022-08-26T08:33:41.199Z,64.00
2022-08-26T08:35:41.180Z,64.27
2022-08-26T08:36:41.622Z,63.97
2022-08-26T08:37:41.154Z,63.97
2022-08-26T08:38:41.144Z,64.37
2022-08-26T08:41:26.264Z,62.02
2022-08-26T08:42:26.266Z,61.60
2022-08-26T08:43:26.258Z,61.63
2022-08-26T08:45:27.382Z,61.53
2022-08-26T08:46:27.394Z,61.00
2022-08-26T08:47:27.331Z,60.58
2022-08-26T08:48:27.771Z,60.19
2022-08-26T08:49:27.325Z,59.36
2022-08-26T08:50:27.334Z,59.99
2022-08-26T08:51:27.315Z,60.19
2022-08-26T08:52:27.285Z,59.99
2022-08-26T08:53:27.284Z,60.19
2022-08-26T08:54:27.278Z,59.92
2022-08-26T08:55:27.272Z,60.41
2022-08-26T08:56:27.281Z,60.38
2022-08-26T08:57:27.256Z,59.72
2022-08-26T08:58:27.243Z,60.31
2022-08-26T08:59:27.236Z,60.21
2022-08-26T09:00:30.640Z,59.92
2022-08-26T09:01:27.260Z,59.99
2022-08-26T09:02:27.275Z,60.08
2022-08-26T09:03:27.187Z,60.58
2022-08-26T09:04:27.184Z,60.28
2022-08-26T09:05:27.172Z,59.95
2022-08-26T09:06:27.715Z,57.95
2022-08-26T09:07:27.144Z,57.65
2022-08-26T09:08:27.143Z,56.93
2022-08-26T09:09:27.134Z,56.51
2022-08-26T09:10:27.127Z,56.51
2022-08-26T09:11:27.133Z,56.09
2022-08-26T09:12:29.753Z,55.87
2022-08-26T09:13:28.677Z,55.57
2022-08-26T09:14:27.079Z,54.46
2022-08-26T09:15:30.164Z,53.96
2022-08-26T09:16:27.135Z,53.86
2022-08-26T09:17:27.061Z,54.26
2022-08-26T09:18:27.055Z,53.94
2022-08-26T09:19:27.037Z,53.57
2022-08-26T09:20:27.036Z,54.06
2022-08-26T09:21:27.057Z,53.17
2022-08-26T09:22:27.011Z,54.75
2022-08-26T09:23:27.004Z,54.85
2022-08-26T09:24:28.354Z,55.54
2022-08-26T09:25:26.985Z,56.23
2022-08-26T09:26:29.357Z,54.48
2022-08-26T09:27:26.939Z,55.47
2022-08-26T09:28:26.958Z,55.79
2022-08-26T09:29:26.958Z,55.62
2022-08-26T09:30:28.703Z,56.24
2022-08-26T09:31:27.121Z,57.20
2022-08-26T09:32:26.931Z,57.01
2022-08-26T09:33:26.904Z,57.57
2022-08-26T09:34:26.895Z,56.98
2022-08-26T09:35:26.883Z,56.98
2022-08-26T09:36:26.872Z,56.16
2022-08-26T09:37:26.895Z,55.37
2022-08-26T09:38:28.021Z,54.95
2022-08-26T09:39:27.051Z,55.05
2022-08-26T09:40:27.293Z,54.65
2022-08-26T09:41:26.832Z,54.65
2022-08-26T09:42:26.845Z,54.63
2022-08-26T09:43:26.822Z,54.72
2022-08-26T09:44:26.817Z,53.64
2022-08-26T09:45:26.806Z,53.77
2022-08-26T09:46:26.907Z,53.89
2022-08-26T09:47:26.784Z,54.28
2022-08-26T09:48:26.779Z,55.10
2022-08-26T09:49:26.770Z,54.58
2022-08-26T09:50:28.835Z,55.79
2022-08-26T09:51:26.732Z,54.48
2022-08-26T09:52:26.760Z,54.85
2022-08-26T09:53:30.422Z,53.77
2022-08-26T09:54:30.171Z,51.99
2022-08-26T09:55:27.707Z,51.87
2022-08-26T09:56:27.695Z,51.94
2022-08-26T09:57:26.691Z,50.93
2022-08-26T09:58:26.684Z,51.62
2022-08-26T09:59:26.673Z,50.71
2022-08-26T10:00:26.688Z,52.78
2022-08-26T10:01:26.689Z,48.57
2022-08-26T10:02:26.644Z,48.10
2022-08-26T10:03:26.619Z,48.61
2022-08-26T10:04:27.005Z,49.62
2022-08-26T10:05:26.611Z,49.33
2022-08-26T10:06:26.628Z,50.41
2022-08-26T10:07:26.598Z,50.31
2022-08-26T10:08:26.585Z,49.99
2022-08-26T10:09:26.580Z,49.01
2022-08-26T10:10:26.574Z,49.52
2022-08-26T10:11:28.172Z,49.82
2022-08-26T10:12:26.547Z,49.10
2022-08-26T10:13:26.537Z,49.99
2022-08-26T10:14:26.592Z,49.30
2022-08-26T10:15:26.508Z,49.50
2022-08-26T10:16:28.610Z,49.99
2022-08-26T10:17:26.497Z,49.97
2022-08-26T10:18:27.950Z,49.06
2022-08-26T10:19:29.283Z,46.62
2022-08-26T10:20:27.485Z,48.10
2022-08-26T10:21:26.478Z,48.00
2022-08-26T10:22:26.449Z,47.70
2022-08-26T10:23:26.495Z,48.10
2022-08-26T10:24:26.433Z,47.48
2022-08-26T10:25:26.422Z,48.27
2022-08-26T10:26:26.421Z,47.97
2022-08-26T10:27:26.408Z,47.38
2022-08-26T10:28:26.391Z,46.79
2022-08-26T10:29:26.387Z,46.47
2022-08-26T10:30:26.400Z,46.47
2022-08-26T10:31:27.773Z,46.18
2022-08-26T10:32:26.401Z,46.57
2022-08-26T10:33:26.350Z,47.66
2022-08-26T10:34:26.334Z,47.83
2022-08-26T10:35:26.324Z,47.63
2022-08-26T10:36:26.339Z,46.06
2022-08-26T10:37:26.310Z,45.96
2022-08-26T10:38:26.295Z,45.76
2022-08-26T10:39:26.276Z,46.03
2022-08-26T10:40:26.305Z,46.15
2022-08-26T10:41:26.358Z,44.56
2022-08-26T10:42:26.245Z,46.03
2022-08-26T10:43:26.252Z,45.67
2022-08-26T10:44:26.238Z,45.45
2022-08-26T10:45:26.231Z,45.86
2022-08-26T10:46:27.361Z,45.94
2022-08-26T10:47:26.226Z,46.03
2022-08-26T10:48:26.200Z,45.81
2022-08-26T10:49:27.190Z,45.35
2022-08-26T10:50:26.246Z,45.86
2022-08-26T10:51:26.177Z,46.53
2022-08-26T10:52:29.441Z,46.03
2022-08-26T10:53:26.482Z,46.03
2022-08-26T10:54:26.152Z,45.54
2022-08-26T10:55:26.146Z,44.54
2022-08-26T10:56:26.134Z,44.34
2022-08-26T10:57:26.145Z,43.95
2022-08-26T10:58:26.689Z,45.72
2022-08-26T10:59:26.107Z,45.35
2022-08-26T11:00:27.438Z,45.81
2022-08-26T11:01:26.112Z,46.01
2022-08-26T11:02:26.092Z,45.70
2022-08-26T11:03:26.064Z,45.89
2022-08-26T11:04:26.127Z,45.50
2022-08-26T11:05:26.057Z,45.10
2022-08-26T11:06:26.045Z,45.42
2022-08-26T11:07:26.047Z,45.27
2022-08-26T11:08:26.019Z,45.29
2022-08-26T11:09:26.012Z,46.00
2022-08-26T11:10:25.998Z,45.98
2022-08-26T11:11:25.988Z,46.15
2022-08-26T11:12:25.995Z,45.76
2022-08-26T11:13:25.971Z,46.03
2022-08-26T11:14:29.113Z,44.95
2022-08-26T11:15:25.970Z,45.54
2022-08-26T11:16:25.984Z,45.84
2022-08-26T11:17:25.984Z,44.76
2022-08-26T11:18:25.942Z,44.46
2022-08-26T11:19:26.352Z,44.58
2022-08-26T11:20:25.905Z,44.26
2022-08-26T11:21:25.887Z,45.37
2022-08-26T11:22:25.904Z,44.21
2022-08-26T11:23:25.875Z,44.88
2022-08-26T11:24:25.865Z,44.09
2022-08-26T11:25:29.895Z,45.05
2022-08-26T11:26:36.055Z,44.07
2022-08-26T11:27:26.878Z,42.40
2022-08-26T11:28:25.844Z,42.71
2022-08-26T11:29:25.833Z,43.30
2022-08-26T11:30:25.830Z,43.57
2022-08-26T11:31:25.885Z,43.48
2022-08-26T11:32:25.907Z,42.69
2022-08-26T11:33:25.781Z,42.89
2022-08-26T11:34:25.773Z,43.68
2022-08-26T11:35:25.774Z,45.54
2022-08-26T11:36:25.776Z,42.28
2022-08-26T11:37:25.790Z,40.80
2022-08-26T11:38:25.747Z,42.18
2022-08-26T11:39:25.744Z,41.09
2022-08-26T11:40:25.770Z,40.11
2022-08-26T11:41:25.777Z,42.00
2022-08-26T11:42:27.726Z,41.27
2022-08-26T11:43:25.690Z,41.45
2022-08-26T11:44:25.688Z,41.94
2022-08-26T11:45:25.705Z,41.37
2022-08-26T11:46:25.662Z,41.47
2022-08-26T11:47:25.683Z,41.17
2022-08-26T11:48:25.655Z,41.08
2022-08-26T11:49:25.632Z,41.17
2022-08-26T11:50:25.647Z,42.16
2022-08-26T11:51:25.614Z,42.85
2022-08-26T11:52:25.621Z,43.33
2022-08-26T11:53:25.618Z,43.04
2022-08-26T11:54:32.721Z,42.96
2022-08-26T11:55:26.588Z,42.75
2022-08-26T11:56:25.762Z,43.36
2022-08-26T11:57:26.583Z,43.65
2022-08-26T11:58:25.577Z,42.86
2022-08-26T11:59:25.594Z,42.94
2022-08-26T12:00:25.543Z,42.45
2022-08-26T12:01:25.523Z,43.02
2022-08-26T12:02:25.542Z,42.33
2022-08-26T12:03:25.605Z,41.74
2022-08-26T12:04:25.555Z,42.02
2022-08-26T12:05:25.495Z,42.61
2022-08-26T12:07:25.509Z,40.96
2022-08-26T12:08:25.952Z,41.37
2022-08-26T12:09:25.442Z,40.98
2022-08-26T12:10:25.460Z,41.78
2022-08-26T12:11:25.450Z,41.78
2022-08-26T12:12:25.449Z,40.61
2022-08-26T12:13:26.399Z,40.31
2022-08-26T12:14:25.410Z,40.82
2022-08-26T12:15:25.388Z,42.20
2022-08-26T12:16:25.508Z,40.62
2022-08-26T12:17:25.403Z,40.35
2022-08-26T12:18:29.487Z,41.02
2022-08-26T12:19:25.377Z,42.10
2022-08-26T12:20:25.370Z,43.18
2022-08-26T12:21:25.340Z,43.28
2022-08-26T12:22:25.359Z,43.48
2022-08-26T12:23:25.330Z,43.08
2022-08-26T12:24:25.319Z,43.38
2022-08-26T12:25:25.328Z,43.79
2022-08-26T12:26:25.287Z,43.48
2022-08-26T12:27:25.323Z,43.87
2022-08-26T12:28:25.296Z,42.59
2022-08-26T12:29:26.808Z,42.89
2022-08-26T12:30:26.157Z,43.10
2022-08-26T12:31:25.308Z,43.20
2022-08-26T12:32:25.268Z,43.89
2022-08-26T12:33:25.237Z,43.30
2022-08-26T12:34:25.225Z,44.09
2022-08-26T12:35:25.243Z,43.18
2022-08-26T12:36:25.209Z,43.48
2022-08-26T12:37:25.211Z,43.38
2022-08-26T12:38:25.184Z,44.07
2022-08-26T12:39:25.172Z,44.76
2022-08-26T12:40:25.268Z,45.84
2022-08-26T12:41:25.156Z,45.27
2022-08-26T12:42:25.156Z,45.76
2022-08-26T12:43:25.138Z,45.27
2022-08-26T12:44:25.122Z,45.27
2022-08-26T12:45:25.159Z,45.76
2022-08-26T12:46:25.105Z,44.78
2022-08-26T12:47:40.086Z,45.76
2022-08-26T12:48:26.096Z,45.86
2022-08-26T12:49:25.096Z,45.76
2022-08-26T12:50:25.067Z,45.47
2022-08-26T12:51:25.057Z,44.58
2022-08-26T12:52:25.068Z,45.15
2022-08-26T12:53:25.051Z,45.35
2022-08-26T12:54:25.030Z,45.62
2022-08-26T12:55:25.018Z,43.18
2022-08-26T12:56:25.013Z,42.89
2022-08-26T12:57:24.998Z,42.89